Time;durP1;ratioP1;P1;durP2;ratioP2;P2;SDS_P1;SDS_P2;PMS_P1;PMS_P2;Temp;Humidity;BMP_temperature;BMP_pressure;BME280_temperature;BME280_humidity;BME280_pressure;Samples;Min_cycle;Max_cycle;Signal;HPM_P1;HPM_P2
2023/12/29 00:01:18;;;;;;;15.20;1.48;;;;;;;4.77;67.82;100217.41;4962731;28;20026;-68
2023/12/29 00:03:43;;;;;;;7.32;1.67;;;;;;;5.01;67.80;100210.75;4963908;28;20030;-70
2023/12/29 00:06:09;;;;;;;5.47;1.08;;;;;;;4.57;68.23;100206.72;4960336;28;21072;-70
2023/12/29 00:08:36;;;;;;;8.90;1.52;;;;;;;4.98;67.67;100212.56;4977485;28;20617;-69
2023/12/29 00:11:02;;;;;;;7.93;1.52;;;;;;;4.66;67.88;100210.81;4963040;28;20043;-68
2023/12/29 00:13:28;;;;;;;7.55;1.17;;;;;;;4.73;67.79;100200.25;4964623;28;20057;-69
2023/12/29 00:15:55;;;;;;;11.00;1.30;;;;;;;4.71;67.59;100212.38;4957564;28;20242;-69
2023/12/29 00:18:20;;;;;;;15.48;1.90;;;;;;;4.67;67.49;100210.75;4977294;28;20023;-69
2023/12/29 00:20:46;;;;;;;4.63;1.13;;;;;;;5.21;66.34;100205.00;4974120;28;20877;-68
2023/12/29 00:23:12;;;;;;;11.10;1.63;;;;;;;4.85;66.84;100193.88;4958780;28;20409;-69
2023/12/29 00:25:37;;;;;;;7.43;1.38;;;;;;;4.61;67.48;100182.47;4961304;28;20041;-69
2023/12/29 00:28:04;;;;;;;13.10;1.13;;;;;;;4.81;66.82;100180.19;4961003;28;20031;-64
2023/12/29 00:30:29;;;;;;;9.48;1.73;;;;;;;5.09;66.06;100197.56;4973800;28;20038;-65
2023/12/29 00:32:57;;;;;;;11.63;1.50;;;;;;;4.87;66.08;100206.78;4958240;28;20624;-67
2023/12/29 00:35:23;;;;;;;8.57;1.08;;;;;;;5.37;64.82;100201.97;4974729;28;20043;-66
2023/12/29 00:37:52;;;;;;;15.27;1.42;;;;;;;5.08;65.42;100172.56;4961721;28;20046;-66
2023/12/29 00:40:17;;;;;;;13.27;1.35;;;;;;;5.02;65.91;100183.94;4975735;28;20038;-65
2023/12/29 00:42:44;;;;;;;12.95;1.70;;;;;;;5.14;65.82;100187.91;4962808;28;20526;-66
2023/12/29 00:45:09;;;;;;;6.05;1.25;;;;;;;5.04;65.74;100178.72;4989201;28;20188;-65
2023/12/29 00:47:35;;;;;;;6.93;1.23;;;;;;;5.31;64.88;100177.09;4968079;28;20173;-66
2023/12/29 00:50:01;;;;;;;8.32;0.95;;;;;;;4.93;65.62;100175.59;4956622;28;20057;-67
2023/12/29 00:52:27;;;;;;;10.20;2.03;;;;;;;5.21;64.85;100175.63;4960757;28;20532;-70
2023/12/29 00:54:53;;;;;;;6.82;0.95;;;;;;;5.11;65.39;100172.47;4960025;28;20466;-67
2023/12/29 00:57:19;;;;;;;9.23;1.30;;;;;;;4.77;66.25;100165.63;4991359;28;20121;-66
2023/12/29 00:59:46;;;;;;;6.40;0.70;;;;;;;5.15;65.58;100166.31;4960447;28;20071;-65
2023/12/29 01:02:12;;;;;;;9.30;1.30;;;;;;;5.44;64.36;100162.88;4958627;28;20031;-66
2023/12/29 01:04:39;;;;;;;11.68;0.93;;;;;;;4.92;64.92;100172.16;4977344;28;20501;-65
2023/12/29 01:07:05;;;;;;;8.32;1.33;;;;;;;4.89;65.83;100159.28;4957913;28;20034;-67
2023/12/29 01:09:31;;;;;;;7.32;2.15;;;;;;;5.50;64.12;100173.94;4972447;28;20486;-67
2023/12/29 01:11:56;;;;;;;10.38;1.63;;;;;;;5.51;64.04;100168.72;4968603;28;20301;-67
2023/12/29 01:14:22;;;;;;;9.27;0.70;;;;;;;5.21;64.79;100173.94;4950868;28;20041;-66
2023/12/29 01:16:47;;;;;;;15.20;1.65;;;;;;;5.39;64.19;100154.41;4960645;28;20084;-67
2023/12/29 01:19:15;;;;;;;9.20;1.60;;;;;;;5.19;64.69;100167.06;4957402;28;20255;-67
2023/12/29 01:21:41;;;;;;;4.18;0.77;;;;;;;5.25;64.57;100156.53;4963176;28;20694;-65
2023/12/29 01:24:07;;;;;;;11.77;0.98;;;;;;;5.54;63.52;100176.41;4956265;28;20058;-64
2023/12/29 01:26:37;;;;;;;7.80;1.23;;;;;;;5.39;64.17;100154.41;4961212;28;20030;-64
2023/12/29 01:29:04;;;;;;;10.50;1.63;;;;;;;5.66;63.11;100157.88;4957218;28;20453;-64
2023/12/29 01:31:30;;;;;;;10.45;1.17;;;;;;;5.64;63.17;100149.31;4962065;28;20045;-66
2023/12/29 01:33:56;;;;;;;6.43;1.25;;;;;;;5.40;63.69;100152.66;4972268;28;20063;-67
2023/12/29 01:36:21;;;;;;;13.20;1.63;;;;;;;5.08;64.69;100153.56;4976819;28;20655;-66
2023/12/29 01:38:48;;;;;;;7.45;0.82;;;;;;;5.55;63.43;100144.41;4957508;28;20046;-65
2023/12/29 01:41:19;;;;;;;4.40;1.13;;;;;;;5.40;63.33;100144.88;4956573;28;20026;-65
2023/12/29 01:43:57;;;;;;;4.80;0.75;;;;;;;5.66;62.37;100137.16;4965935;28;20504;-65
2023/12/29 01:46:28;;;;;;;14.60;1.50;;;;;;;5.34;63.30;100129.50;4963033;28;20050;-65
2023/12/29 01:48:53;;;;;;;5.22;0.65;;;;;;;5.42;63.50;100133.56;4972500;28;20050;-64
2023/12/29 01:51:21;;;;;;;7.95;0.75;;;;;;;5.12;63.81;100152.59;4958084;28;20038;-65
2023/12/29 01:53:47;;;;;;;8.32;0.50;;;;;;;5.18;63.50;100129.94;4965098;28;20052;-67
2023/12/29 01:56:14;;;;;;;7.38;1.05;;;;;;;5.38;63.28;100138.88;4956327;28;20114;-65
2023/12/29 01:58:39;;;;;;;2.88;0.50;;;;;;;5.41;62.74;100154.31;4966283;28;20038;-65
2023/12/29 02:01:07;;;;;;;5.95;0.77;;;;;;;5.06;63.31;100122.56;4953797;28;20138;-67
2023/12/29 02:03:36;;;;;;;8.35;1.02;;;;;;;5.23;63.38;100138.47;4988557;28;21380;-67
2023/12/29 02:06:01;;;;;;;5.18;0.60;;;;;;;5.51;61.99;100122.06;4983960;28;20042;-67
2023/12/29 02:08:28;;;;;;;4.93;0.93;;;;;;;5.39;62.46;100127.59;4959637;28;20465;-65
2023/12/29 02:10:55;;;;;;;7.93;0.50;;;;;;;5.28;62.88;100124.50;4958745;28;20567;-65
2023/12/29 02:13:22;;;;;;;7.65;0.70;;;;;;;5.54;62.24;100111.59;4958515;28;20029;-65
2023/12/29 02:15:52;;;;;;;13.68;0.90;;;;;;;5.45;62.76;100122.25;4960015;28;20576;-64
2023/12/29 02:18:20;;;;;;;11.40;1.23;;;;;;;5.28;62.44;100120.19;4960016;28;20042;-65
2023/12/29 02:20:46;;;;;;;8.15;1.05;;;;;;;5.51;62.21;100127.25;4959123;28;20030;-65
2023/12/29 02:23:12;;;;;;;10.57;0.90;;;;;;;5.31;63.13;100129.59;4957582;28;20118;-67
2023/12/29 02:25:37;;;;;;;10.73;0.43;;;;;;;5.47;61.93;100099.72;4962983;28;20118;-65
2023/12/29 02:28:24;;;;;;;5.80;0.70;;;;;;;5.76;61.48;100110.91;4961988;28;20031;-64
2023/12/29 02:30:59;;;;;;;6.88;1.27;;;;;;;5.71;61.91;100107.63;4965031;28;20060;-66
2023/12/29 02:33:28;;;;;;;4.70;1.20;;;;;;;5.01;63.48;100076.06;4959848;28;20043;-65
2023/12/29 02:35:56;;;;;;;6.75;0.57;;;;;;;5.14;63.47;100092.06;4957530;28;20050;-65
2023/12/29 02:38:22;;;;;;;3.97;0.85;;;;;;;5.16;63.42;100092.88;4957153;28;20464;-65
2023/12/29 02:40:48;;;;;;;2.13;0.45;;;;;;;4.94;63.75;100086.63;4955999;28;20106;-65
2023/12/29 02:43:14;;;;;;;7.88;0.85;;;;;;;4.91;64.05;100078.97;4956028;28;20038;-65
2023/12/29 02:45:39;;;;;;;6.40;0.60;;;;;;;5.45;62.85;100078.19;4956839;28;20045;-65
2023/12/29 02:48:05;;;;;;;5.75;1.25;;;;;;;5.71;61.87;100076.53;4954959;28;20062;-65
2023/12/29 02:50:31;;;;;;;1.25;0.43;;;;;;;5.18;63.05;100070.38;4956656;28;20494;-65
2023/12/29 02:52:56;;;;;;;2.92;0.45;;;;;;;5.09;63.45;100068.06;4963939;28;20482;-64
2023/12/29 02:55:22;;;;;;;4.78;0.38;;;;;;;5.20;63.04;100054.78;4954708;28;20121;-64
2023/12/29 02:57:48;;;;;;;8.02;1.27;;;;;;;5.32;62.37;100082.06;4957240;28;20125;-65
2023/12/29 03:00:14;;;;;;;4.30;0.47;;;;;;;5.50;61.40;100078.88;4955985;28;20047;-64
2023/12/29 03:02:39;;;;;;;5.97;0.70;;;;;;;5.46;60.89;100078.16;4950787;28;20034;-64
2023/12/29 03:05:06;;;;;;;5.22;0.65;;;;;;;5.66;60.04;100071.50;4980412;28;20093;-64
2023/12/29 03:07:31;;;;;;;5.90;0.50;;;;;;;5.07;60.35;100059.47;4967140;28;20046;-64
2023/12/29 03:09:57;;;;;;;4.18;0.32;;;;;;;5.22;59.85;100061.59;4956926;28;20043;-64
2023/12/29 03:12:22;;;;;;;2.17;0.60;;;;;;;5.40;58.75;100060.19;4962975;28;20404;-65
2023/12/29 03:14:48;;;;;;;9.00;1.00;;;;;;;5.32;58.74;100053.56;4957398;28;20662;-65
2023/12/29 03:17:14;;;;;;;5.90;0.30;;;;;;;5.45;57.68;100050.50;4954817;28;20042;-66
2023/12/29 03:19:39;;;;;;;5.90;0.40;;;;;;;5.77;57.18;100063.34;4958824;28;20039;-65
2023/12/29 03:22:05;;;;;;;1.20;0.10;;;;;;;5.42;57.32;100078.28;4956599;28;20023;-65
2023/12/29 03:24:30;;;;;;;0.88;0.10;;;;;;;4.78;57.78;100068.06;4963169;28;20066;-62
2023/12/29 03:26:56;;;;;;;6.60;0.20;;;;;;;4.93;56.61;100069.41;4973225;28;20127;-63
2023/12/29 03:29:22;;;;;;;2.53;0.30;;;;;;;4.98;56.18;100070.13;4960284;28;20717;-64
2023/12/29 03:31:48;;;;;;;4.20;0.70;;;;;;;5.38;55.37;100069.75;4969621;28;20050;-65
2023/12/29 03:34:16;;;;;;;3.55;0.20;;;;;;;4.35;57.11;100070.13;4972214;28;20042;-65
2023/12/29 03:36:41;;;;;;;4.43;0.90;;;;;;;4.33;57.30;100071.91;4958111;28;20073;-65
2023/12/29 03:39:07;;;;;;;4.85;0.63;;;;;;;3.87;58.75;100070.50;4953462;28;20137;-65
2023/12/29 03:41:33;;;;;;;1.30;0.63;;;;;;;3.97;58.99;100071.97;4958841;28;20080;-65
2023/12/29 03:43:59;;;;;;;2.80;0.10;;;;;;;4.35;58.84;100070.13;4958563;28;20066;-64
2023/12/29 03:46:25;;;;;;;4.30;0.45;;;;;;;4.29;58.67;100065.09;4955344;28;20042;-65
2023/12/29 03:48:51;;;;;;;3.95;0.10;;;;;;;4.29;59.13;100069.44;4985373;28;20528;-66
2023/12/29 03:51:17;;;;;;;4.47;0.40;;;;;;;4.32;59.27;100077.97;4957446;28;20039;-65
2023/12/29 03:53:43;;;;;;;2.60;0.40;;;;;;;4.28;59.62;100076.34;4970813;28;20033;-65
2023/12/29 03:56:12;;;;;;;8.98;0.32;;;;;;;4.31;59.43;100084.03;4972225;28;20038;-69
2023/12/29 03:58:37;;;;;;;6.25;0.50;;;;;;;3.92;60.73;100075.56;4957917;28;20124;-67
2023/12/29 04:01:03;;;;;;;6.72;0.50;;;;;;;4.05;60.83;100076.09;4958589;28;20126;-67
2023/12/29 04:03:29;;;;;;;11.40;0.40;;;;;;;4.28;60.34;100071.19;4957900;28;20034;-67
2023/12/29 04:05:54;;;;;;;5.78;0.50;;;;;;;4.60;59.51;100084.97;4958690;28;20043;-66
2023/12/29 04:08:20;;;;;;;12.45;1.08;;;;;;;4.56;59.85;100073.00;4957161;28;20246;-65
2023/12/29 04:10:45;;;;;;;11.10;1.42;;;;;;;4.29;60.84;100070.28;4960523;28;20049;-65
2023/12/29 04:13:11;;;;;;;7.00;0.98;;;;;;;4.34;61.00;100070.16;4956944;28;20466;-65
2023/12/29 04:15:36;;;;;;;12.43;1.80;;;;;;;4.09;61.45;100065.63;4957247;28;20525;-65
2023/12/29 04:18:02;;;;;;;5.47;1.35;;;;;;;4.37;61.15;100072.69;4960627;28;20034;-64
2023/12/29 04:20:28;;;;;;;11.73;1.27;;;;;;;4.52;60.46;100071.38;4945020;28;20675;-66
2023/12/29 04:22:53;;;;;;;4.95;0.98;;;;;;;4.64;60.36;100071.91;4965574;28;20102;-63
2023/12/29 04:25:19;;;;;;;10.88;1.73;;;;;;;4.58;60.62;100076.41;4959500;28;20494;-63
2023/12/29 04:27:44;;;;;;;12.38;1.88;;;;;;;4.51;60.53;100074.88;4970807;28;20030;-64
2023/12/29 04:30:12;;;;;;;15.43;1.20;;;;;;;4.42;61.19;100071.66;4970004;28;20045;-64
2023/12/29 04:32:37;;;;;;;19.40;2.22;;;;;;;4.53;60.65;100080.88;4965457;28;20039;-65
2023/12/29 04:35:03;;;;;;;15.40;1.73;;;;;;;4.89;60.04;100080.75;4966636;28;20592;-65
2023/12/29 04:37:30;;;;;;;19.55;1.75;;;;;;;4.77;60.61;100075.00;4959915;28;20033;-66
2023/12/29 04:39:55;;;;;;;10.07;1.95;;;;;;;4.76;61.04;100073.28;4959218;28;20266;-67
2023/12/29 04:42:23;;;;;;;17.25;1.77;;;;;;;4.52;61.59;100086.91;4959687;28;20031;-66
2023/12/29 04:44:51;;;;;;;8.45;0.88;;;;;;;5.04;60.36;100080.31;4962838;28;20050;-66
2023/12/29 04:47:16;;;;;;;17.70;1.58;;;;;;;5.36;59.38;100092.28;4960439;28;20031;-66
2023/12/29 04:49:42;;;;;;;13.48;1.52;;;;;;;5.40;59.50;100080.91;4988542;28;20535;-65
2023/12/29 04:52:07;;;;;;;11.05;2.58;;;;;;;4.80;61.37;100087.00;4961784;28;20081;-65
2023/12/29 04:54:33;;;;;;;11.63;2.03;;;;;;;5.22;60.05;100081.50;4965773;28;20171;-66
2023/12/29 04:56:59;;;;;;;8.57;1.13;;;;;;;5.28;60.01;100080.44;4976687;28;20039;-66
2023/12/29 04:59:25;;;;;;;5.18;1.95;;;;;;;5.31;60.02;100080.38;4957079;28;20551;-66
2023/12/29 05:01:50;;;;;;;16.63;1.95;;;;;;;5.19;59.85;100090.22;4969255;28;20030;-66
2023/12/29 05:04:16;;;;;;;18.70;1.60;;;;;;;4.97;60.70;100078.78;4956082;28;20062;-66
2023/12/29 05:06:42;;;;;;;19.75;2.22;;;;;;;5.03;60.18;100091.53;4958391;28;20097;-66
2023/12/29 05:09:08;;;;;;;16.90;2.22;;;;;;;5.05;59.67;100087.16;4978396;28;20055;-65
2023/12/29 05:11:34;;;;;;;10.30;1.38;;;;;;;4.55;60.21;100092.03;4950961;28;20600;-65
2023/12/29 05:14:02;;;;;;;16.98;2.90;;;;;;;5.10;58.95;100090.50;4960861;28;20046;-64
2023/12/29 05:16:28;;;;;;;18.02;1.42;;;;;;;4.97;58.55;100084.81;4955458;28;20038;-64
2023/12/29 05:18:55;;;;;;;12.18;1.77;;;;;;;4.78;58.57;100094.81;4957336;28;20042;-67
2023/12/29 05:21:21;;;;;;;14.55;2.05;;;;;;;5.08;57.74;100087.09;4958692;28;20039;-65
2023/12/29 05:23:47;;;;;;;13.15;2.03;;;;;;;5.04;57.63;100093.25;4959371;28;20061;-68
2023/12/29 05:26:14;;;;;;;6.22;1.60;;;;;;;5.11;57.11;100099.94;4956786;28;20031;-66
2023/12/29 05:28:40;;;;;;;17.02;2.78;;;;;;;4.74;57.85;100098.38;4960550;28;20037;-66
2023/12/29 05:31:05;;;;;;;16.98;2.05;;;;;;;4.76;57.42;100106.09;4960400;28;20030;-66
2023/12/29 05:33:40;;;;;;;11.32;1.30;;;;;;;4.92;57.04;100104.81;4956876;28;21131;-71
2023/12/29 05:36:08;;;;;;;14.00;1.67;;;;;;;4.91;57.23;100110.88;4990184;28;20416;-71
2023/12/29 05:38:33;;;;;;;14.73;1.20;;;;;;;5.49;55.72;100108.31;4957500;28;20038;-71
2023/12/29 05:41:01;;;;;;;22.63;1.98;;;;;;;5.05;56.54;100107.88;4941555;28;20037;-70
2023/12/29 05:43:27;;;;;;;14.05;2.13;;;;;;;5.12;56.09;100124.94;4961149;28;20030;-70
2023/12/29 05:45:55;;;;;;;14.10;1.30;;;;;;;5.36;55.71;100118.19;4950253;28;20633;-70
2023/12/29 05:48:20;;;;;;;11.13;2.20;;;;;;;5.23;56.27;100106.50;4958814;28;20121;-70
2023/12/29 05:50:46;;;;;;;15.80;2.42;;;;;;;5.02;56.51;100111.41;4960230;28;20039;-70
2023/12/29 05:53:15;;;;;;;12.82;1.02;;;;;;;5.50;55.14;100109.13;4968789;28;20031;-70
2023/12/29 05:55:40;;;;;;;22.17;2.08;;;;;;;5.10;55.81;100111.22;4964730;28;20138;-65
2023/12/29 05:58:06;;;;;;;13.20;2.55;;;;;;;4.80;56.32;100103.38;4959952;28;20121;-65
2023/12/29 06:00:31;;;;;;;12.23;1.45;;;;;;;5.04;55.54;100108.78;4955399;28;20429;-65
2023/12/29 06:02:57;;;;;;;12.48;2.42;;;;;;;4.82;55.36;100100.75;4959862;28;20120;-65
2023/12/29 06:05:22;;;;;;;15.00;2.28;;;;;;;5.15;54.50;100109.31;4956973;28;20097;-66
2023/12/29 06:07:50;;;;;;;13.20;2.20;;;;;;;4.94;54.59;100110.78;4958556;28;20088;-66
2023/12/29 06:10:16;;;;;;;10.90;1.10;;;;;;;5.08;54.35;100113.00;4955266;28;20050;-65
2023/12/29 06:12:41;;;;;;;15.32;2.55;;;;;;;5.17;54.12;100117.06;4958833;28;20031;-66
2023/12/29 06:15:07;;;;;;;11.68;1.63;;;;;;;5.07;54.40;100115.63;4959598;28;20104;-73
2023/12/29 06:17:35;;;;;;;12.93;3.15;;;;;;;5.24;53.24;100113.38;4957314;28;20112;-73
2023/12/29 06:20:02;;;;;;;20.63;2.03;;;;;;;5.70;52.94;100106.75;4950902;28;20448;-72
2023/12/29 06:22:27;;;;;;;14.90;1.88;;;;;;;5.35;53.66;100106.13;4973881;28;20032;-73
2023/12/29 06:24:53;;;;;;;15.32;1.80;;;;;;;4.90;54.55;100108.31;4975593;28;20050;-74
2023/12/29 06:27:18;;;;;;;25.48;2.05;;;;;;;5.08;54.93;100102.63;4958792;28;20042;-73
2023/12/29 06:29:43;;;;;;;7.43;1.45;;;;;;;5.24;54.94;100119.41;4961545;28;20129;-73
2023/12/29 06:32:09;;;;;;;16.92;1.73;;;;;;;5.05;55.54;100113.06;4961572;28;20117;-73
2023/12/29 06:34:34;;;;;;;9.35;1.52;;;;;;;5.13;55.93;100110.28;4956766;28;21649;-73
2023/12/29 06:37:00;;;;;;;11.73;2.05;;;;;;;5.39;55.33;100118.13;4960303;28;20109;-69
2023/12/29 06:39:26;;;;;;;15.85;2.38;;;;;;;5.17;55.88;100117.91;4957611;28;20050;-70
2023/12/29 06:41:51;;;;;;;16.15;1.80;;;;;;;5.02;56.11;100124.38;4961600;28;20172;-69
2023/12/29 06:44:17;;;;;;;17.33;1.70;;;;;;;5.11;56.24;100123.25;4954314;28;20074;-69
2023/12/29 06:46:45;;;;;;;14.63;2.47;;;;;;;5.19;55.80;100105.75;4966258;28;20038;-67
2023/12/29 06:49:10;;;;;;;19.48;1.83;;;;;;;5.03;56.33;100120.03;4959867;28;20053;-68
2023/12/29 06:51:38;;;;;;;12.27;1.73;;;;;;;5.23;55.62;100109.97;4969714;28;20771;-66
2023/12/29 06:54:04;;;;;;;12.45;1.27;;;;;;;5.07;55.38;100095.75;4960632;28;20062;-63
2023/12/29 06:56:29;;;;;;;14.15;4.30;;;;;;;4.75;56.35;100096.66;4957095;28;20565;-63
2023/12/29 06:58:55;;;;;;;12.38;1.08;;;;;;;5.34;55.20;100101.00;4957163;28;20027;-63
2023/12/29 07:01:20;;;;;;;16.33;2.67;;;;;;;5.15;55.54;100092.94;4957742;28;20694;-65
2023/12/29 07:03:46;;;;;;;21.75;2.65;;;;;;;5.14;55.33;100096.41;4959357;28;20034;-65
2023/12/29 07:06:11;;;;;;;13.68;1.95;;;;;;;5.24;54.79;100074.53;4959812;28;20101;-67
2023/12/29 07:08:37;;;;;;;16.50;2.10;;;;;;;5.20;54.93;100093.66;4955149;28;20819;-64
2023/12/29 07:11:03;;;;;;;17.42;1.60;;;;;;;5.58;54.27;100108.00;4960134;28;20139;-65
2023/12/29 07:13:28;;;;;;;11.93;2.30;;;;;;;5.14;55.13;100122.31;4960683;28;20030;-66
2023/12/29 07:15:55;;;;;;;20.58;2.00;;;;;;;5.20;54.91;100112.63;4959343;28;20610;-65
2023/12/29 07:18:20;;;;;;;18.63;1.42;;;;;;;5.29;54.94;100095.13;4957911;28;20049;-65
2023/12/29 07:20:46;;;;;;;9.60;1.05;;;;;;;5.15;54.82;100101.56;4963718;28;20949;-65
2023/12/29 07:23:11;;;;;;;12.95;1.42;;;;;;;5.23;55.03;100096.13;4962196;28;20026;-68
2023/12/29 07:25:37;;;;;;;11.82;1.65;;;;;;;5.33;53.98;100096.72;4982611;28;20051;-65
2023/12/29 07:28:03;;;;;;;12.25;2.08;;;;;;;4.88;55.48;100095.44;4957026;28;20035;-66
2023/12/29 07:30:28;;;;;;;15.50;1.45;;;;;;;5.14;55.27;100107.63;4956078;28;20498;-64
2023/12/29 07:32:54;;;;;;;11.30;2.22;;;;;;;5.30;54.61;100108.03;4955916;28;21229;-64
2023/12/29 07:35:19;;;;;;;12.13;2.28;;;;;;;5.18;55.22;100109.22;4957013;28;20065;-64
2023/12/29 07:37:46;;;;;;;10.60;1.60;;;;;;;5.07;55.12;100113.88;4953434;28;20184;-64
2023/12/29 07:40:16;;;;;;;11.50;1.58;;;;;;;5.07;55.44;100095.75;4968008;28;20297;-66
2023/12/29 07:42:57;;;;;;;5.55;1.27;;;;;;;4.84;57.20;100107.59;4957196;28;20066;-66
2023/12/29 07:45:23;;;;;;;13.98;1.00;;;;;;;4.58;58.83;100117.81;4956133;28;20113;-65
2023/12/29 07:47:48;;;;;;;13.80;0.93;;;;;;;4.36;59.09;100100.28;4954290;28;20494;-66
2023/12/29 07:50:14;;;;;;;13.75;0.95;;;;;;;4.32;57.80;100121.97;4961249;28;20045;-66
2023/12/29 07:52:42;;;;;;;15.68;0.95;;;;;;;4.29;58.68;100137.53;4952989;28;20141;-66
2023/12/29 07:55:08;;;;;;;12.20;1.55;;;;;;;4.74;58.49;100126.84;4964461;28;20046;-66
2023/12/29 07:57:33;;;;;;;12.35;1.48;;;;;;;4.27;60.47;100115.19;4967848;28;20034;-68
2023/12/29 07:59:59;;;;;;;9.27;0.88;;;;;;;4.30;59.05;100123.72;4981519;28;20643;-66
2023/12/29 08:02:24;;;;;;;8.25;1.40;;;;;;;4.14;57.60;100127.56;4964129;28;20112;-67
2023/12/29 08:04:50;;;;;;;15.52;0.80;;;;;;;4.67;55.43;100122.72;4961163;28;20038;-68
2023/12/29 08:07:16;;;;;;;12.57;0.70;;;;;;;4.39;55.85;100125.22;4957308;28;20034;-65
2023/12/29 08:09:41;;;;;;;13.23;1.02;;;;;;;4.64;55.50;100131.44;4956536;28;20180;-63
2023/12/29 08:12:07;;;;;;;4.78;0.60;;;;;;;4.14;57.08;100137.91;4962628;28;20328;-67
2023/12/29 08:14:32;;;;;;;10.55;0.90;;;;;;;4.40;57.07;100150.22;4957757;28;20046;-63
2023/12/29 08:16:58;;;;;;;6.15;0.98;;;;;;;3.84;58.59;100140.38;4961171;28;20477;-67
2023/12/29 08:19:24;;;;;;;9.20;0.70;;;;;;;3.75;59.72;100143.19;4959523;28;20129;-67
2023/12/29 08:21:51;;;;;;;6.85;1.08;;;;;;;3.78;59.87;100150.84;4957992;28;20485;-67
2023/12/29 08:24:16;;;;;;;13.15;2.17;;;;;;;4.08;58.67;100163.97;4964024;28;20113;-67
2023/12/29 08:26:46;;;;;;;15.82;2.13;;;;;;;3.94;59.83;100152.22;4949632;28;20801;-68
2023/12/29 08:29:15;;;;;;;7.70;1.20;;;;;;;4.45;58.67;100163.88;4962454;28;20121;-66
2023/12/29 08:31:43;;;;;;;11.18;1.17;;;;;;;4.34;59.59;100156.41;4959768;28;20099;-70
2023/12/29 08:34:08;;;;;;;11.30;1.25;;;;;;;4.00;60.81;100149.47;4962980;28;20604;-69
2023/12/29 08:36:35;;;;;;;9.57;1.15;;;;;;;4.32;60.37;100154.72;4969491;28;20048;-66
2023/12/29 08:39:01;;;;;;;12.75;1.83;;;;;;;4.20;60.86;100150.72;4957693;28;20038;-67
2023/12/29 08:41:27;;;;;;;16.95;1.65;;;;;;;4.27;60.47;100147.06;4968324;28;20027;-70
2023/12/29 08:43:53;;;;;;;14.27;1.88;;;;;;;4.39;60.40;100139.00;4962587;28;20026;-67
2023/12/29 08:46:25;;;;;;;15.18;1.77;;;;;;;4.33;60.48;100139.16;4963754;28;20505;-68
2023/12/29 08:48:51;;;;;;;9.93;2.38;;;;;;;4.37;59.83;100142.53;4956282;28;21707;-69
2023/12/29 08:51:16;;;;;;;20.85;2.20;;;;;;;4.75;58.98;100149.28;4962831;28;20090;-70
2023/12/29 08:53:42;;;;;;;22.70;2.17;;;;;;;4.87;58.62;100144.66;4972610;28;20042;-66
2023/12/29 08:56:07;;;;;;;14.75;1.52;;;;;;;4.92;58.26;100138.50;4964318;28;20046;-65
2023/12/29 08:58:33;;;;;;;20.58;2.00;;;;;;;4.49;59.43;100143.94;4955673;28;20113;-67
2023/12/29 09:00:58;;;;;;;12.35;1.17;;;;;;;4.87;58.48;100150.66;4957622;28;20085;-66
2023/12/29 09:03:24;;;;;;;11.05;1.80;;;;;;;4.80;58.08;100154.31;4977259;28;20073;-66
2023/12/29 09:05:51;;;;;;;13.55;1.73;;;;;;;4.95;57.70;100153.09;4953864;28;20144;-67
2023/12/29 09:08:17;;;;;;;17.80;1.60;;;;;;;4.86;58.34;100145.56;4959597;28;20027;-66
2023/12/29 09:10:42;;;;;;;15.75;1.67;;;;;;;5.04;57.49;100147.66;4954949;28;20097;-64
2023/12/29 09:13:09;;;;;;;11.15;1.42;;;;;;;5.32;56.94;100152.00;4961743;28;20656;-66
2023/12/29 09:15:35;;;;;;;14.75;2.53;;;;;;;5.19;57.09;100147.22;4956815;28;20038;-66
2023/12/29 09:18:01;;;;;;;11.65;1.45;;;;;;;5.08;57.44;100144.09;4953293;28;21055;-65
2023/12/29 09:20:27;;;;;;;19.48;2.22;;;;;;;5.38;56.66;100146.66;4946672;28;20804;-66
2023/12/29 09:22:53;;;;;;;16.80;1.80;;;;;;;5.41;56.62;100160.38;4951747;28;20044;-64
2023/12/29 09:25:19;;;;;;;11.02;1.27;;;;;;;5.16;56.62;100152.47;4959917;28;20039;-66
2023/12/29 09:27:47;;;;;;;19.63;2.25;;;;;;;5.33;56.27;100148.53;4953257;28;20034;-66
2023/12/29 09:30:13;;;;;;;14.55;0.93;;;;;;;5.23;55.44;100151.41;4961246;28;20467;-65
2023/12/29 09:32:39;;;;;;;12.75;1.40;;;;;;;4.76;55.99;100147.53;4969717;28;20034;-64
2023/12/29 09:35:04;;;;;;;13.48;0.80;;;;;;;5.36;54.61;100148.44;4959017;28;20245;-66
2023/12/29 09:37:30;;;;;;;18.20;1.33;;;;;;;5.94;53.33;100144.03;4955940;28;20031;-64
2023/12/29 09:39:55;;;;;;;13.57;1.63;;;;;;;5.85;52.88;100157.31;4955914;28;20650;-64
2023/12/29 09:42:24;;;;;;;22.23;2.28;;;;;;;5.75;53.06;100156.75;4959078;28;20034;-66
2023/12/29 09:44:51;;;;;;;24.75;1.55;;;;;;;6.00;52.44;100161.16;4960325;28;20112;-66
2023/12/29 09:47:28;;;;;;;6.88;1.30;;;;;;;5.79;52.60;100157.50;4959910;28;20066;-65
2023/12/29 09:49:53;;;;;;;14.35;2.03;;;;;;;6.01;52.43;100168.03;4954385;28;20540;-66
2023/12/29 09:52:21;;;;;;;15.43;1.25;;;;;;;6.15;51.00;100160.66;4961660;28;20061;-65
2023/12/29 09:54:49;;;;;;;14.52;1.63;;;;;;;6.36;50.61;100156.53;4962346;28;20045;-64
2023/12/29 09:57:16;;;;;;;7.90;1.02;;;;;;;6.22;51.12;100158.72;4967428;28;20038;-65
2023/12/29 09:59:42;;;;;;;22.40;2.03;;;;;;;5.77;51.79;100146.31;4954719;28;20390;-64
2023/12/29 10:02:25;;;;;;;10.50;1.58;;;;;;;5.70;51.68;100165.56;4958687;28;20045;-64
2023/12/29 10:04:51;;;;;;;7.32;1.48;;;;;;;5.91;51.26;100151.94;4950005;28;20038;-64
2023/12/29 10:07:26;;;;;;;17.77;1.20;;;;;;;5.63;51.87;100152.78;4955321;28;20072;-64
2023/12/29 10:09:56;;;;;;;14.32;1.35;;;;;;;5.54;52.51;100157.41;4951653;28;20299;-64
2023/12/29 10:12:24;;;;;;;15.40;1.55;;;;;;;5.27;52.83;100153.91;4957837;28;20506;-64
2023/12/29 10:15:14;;;;;;;10.48;1.15;;;;;;;5.59;52.34;100156.38;4952351;28;20416;-64
2023/12/29 10:18:02;;;;;;;8.38;0.70;;;;;;;5.43;53.03;100155.13;4954435;28;20034;-64
2023/12/29 10:21:04;;;;;;;10.10;0.82;;;;;;;5.73;52.30;100144.75;4956182;28;20533;-64
2023/12/29 10:23:42;;;;;;;13.00;1.35;;;;;;;5.24;53.54;100145.31;4957875;28;20037;-64
2023/12/29 10:26:10;;;;;;;10.48;1.23;;;;;;;5.66;53.18;100142.34;4953311;28;20046;-64
2023/12/29 10:28:36;;;;;;;9.15;1.30;;;;;;;5.01;54.75;100137.34;4953244;28;20401;-64
2023/12/29 10:31:02;;;;;;;13.63;1.70;;;;;;;5.23;54.32;100146.22;4953043;28;20047;-63
2023/12/29 10:33:30;;;;;;;12.93;1.08;;;;;;;4.96;54.49;100141.81;4963322;28;20046;-65
2023/12/29 10:36:02;;;;;;;9.00;1.55;;;;;;;4.99;54.99;100139.16;4952639;28;20038;-63
2023/12/29 10:38:28;;;;;;;10.20;0.93;;;;;;;5.38;54.24;100133.69;4976546;28;20027;-65
2023/12/29 10:40:54;;;;;;;15.50;1.52;;;;;;;5.78;53.08;100135.91;4982085;28;20094;-65
2023/12/29 10:43:23;;;;;;;10.43;1.67;;;;;;;5.35;54.76;100133.81;4958386;28;20509;-65
2023/12/29 10:45:49;;;;;;;13.18;1.48;;;;;;;5.90;53.48;100139.84;4966713;28;20054;-64
2023/12/29 10:48:24;;;;;;;12.85;1.58;;;;;;;5.54;54.63;100140.09;4974702;28;20031;-64
2023/12/29 10:50:49;;;;;;;14.20;1.13;;;;;;;6.18;52.93;100138.94;4951501;28;20061;-65
2023/12/29 10:53:18;;;;;;;11.45;0.60;;;;;;;5.46;54.52;100134.31;4953996;28;20493;-64
2023/12/29 10:55:44;;;;;;;13.70;2.47;;;;;;;5.76;53.98;100142.88;4951160;28;20043;-64
2023/12/29 10:58:10;;;;;;;11.88;1.38;;;;;;;5.71;53.77;100138.75;4963483;28;20089;-65
2023/12/29 11:00:35;;;;;;;10.13;1.20;;;;;;;6.23;53.05;100142.22;4954109;28;20526;-65
2023/12/29 11:03:01;;;;;;;11.70;1.02;;;;;;;5.33;54.85;100143.38;4955719;28;20034;-63
2023/12/29 11:05:27;;;;;;;13.48;1.77;;;;;;;6.20;52.98;100144.94;4958044;28;20050;-63
2023/12/29 11:07:54;;;;;;;12.77;0.68;;;;;;;5.66;54.05;100144.09;4953280;28;21922;-63
2023/12/29 11:10:23;;;;;;;13.05;1.02;;;;;;;6.05;53.21;100148.88;4958237;28;20046;-66
2023/12/29 11:12:49;;;;;;;12.90;3.05;;;;;;;5.56;54.40;100137.47;4953718;28;20046;-64
2023/12/29 11:15:15;;;;;;;16.52;2.30;;;;;;;5.99;53.23;100144.72;4957694;28;20047;-64
2023/12/29 11:17:52;;;;;;;23.00;1.70;;;;;;;5.63;53.62;100137.22;4953835;28;20034;-63
2023/12/29 11:20:19;;;;;;;14.05;1.85;;;;;;;5.30;53.97;100127.88;4956820;28;20092;-64
2023/12/29 11:22:46;;;;;;;11.57;1.13;;;;;;;5.61;53.34;100131.25;4955974;28;20112;-64
2023/12/29 11:25:11;;;;;;;12.20;1.40;;;;;;;5.46;53.56;100134.31;4953126;28;20132;-64
2023/12/29 11:27:37;;;;;;;18.52;1.45;;;;;;;5.96;52.65;100129.28;4953801;28;20130;-64